createdAt,value
2022-08-30T00:01:30.285Z,6.13
2022-08-30T00:03:58.743Z,6.47
2022-08-30T00:06:28.503Z,5.82
2022-08-30T00:08:56.706Z,6.57
2022-08-30T00:11:27.475Z,6.07
2022-08-30T00:13:56.806Z,7.60
2022-08-30T00:16:24.679Z,6.25
2022-08-30T00:18:52.049Z,6.38
2022-08-30T00:21:19.486Z,6.13
2022-08-30T00:23:46.490Z,5.90
2022-08-30T00:26:13.881Z,5.95
2022-08-30T00:28:41.344Z,5.93
2022-08-30T00:31:08.778Z,6.28
2022-08-30T00:33:35.902Z,6.25
2022-08-30T00:36:04.042Z,6.55
2022-08-30T00:38:31.466Z,6.10
2022-08-30T00:41:00.374Z,7.20
2022-08-30T00:43:30.786Z,7.18
2022-08-30T00:46:00.406Z,6.35
2022-08-30T00:48:27.481Z,7.78
2022-08-30T00:51:00.664Z,6.13
2022-08-30T00:53:35.733Z,6.60
2022-08-30T00:56:05.373Z,6.80
2022-08-30T00:58:38.498Z,7.93
2022-08-30T01:01:07.819Z,7.95
2022-08-30T01:03:36.928Z,7.10
2022-08-30T01:06:05.379Z,6.90
2022-08-30T01:08:32.652Z,6.60
2022-08-30T01:11:00.683Z,6.88
2022-08-30T01:13:28.338Z,7.38
2022-08-30T01:15:56.421Z,7.70
2022-08-30T01:18:24.474Z,8.25
2022-08-30T01:21:19.432Z,7.72
2022-08-30T01:23:50.415Z,8.65
2022-08-30T01:26:19.072Z,8.05
2022-08-30T01:28:55.177Z,7.57
2022-08-30T01:31:22.825Z,7.82
2022-08-30T01:33:51.195Z,8.05
2022-08-30T01:36:20.143Z,6.95
2022-08-30T01:38:56.972Z,7.30
2022-08-30T01:41:32.363Z,7.43
2022-08-30T01:44:02.918Z,9.70
2022-08-30T01:46:36.198Z,10.38
2022-08-30T01:49:06.946Z,9.65
2022-08-30T01:51:35.131Z,9.05
2022-08-30T01:54:02.334Z,8.45
2022-08-30T01:56:30.152Z,8.77
2022-08-30T01:59:02.683Z,7.95
2022-08-30T02:01:32.562Z,7.60
2022-08-30T02:04:00.456Z,7.45
2022-08-30T02:06:28.096Z,7.68
2022-08-30T02:08:55.121Z,8.50
2022-08-30T02:11:30.644Z,8.23
2022-08-30T02:13:59.023Z,7.80
2022-08-30T02:16:28.882Z,7.68
2022-08-30T02:18:57.363Z,8.10
2022-08-30T02:21:25.892Z,7.35
2022-08-30T02:23:55.243Z,7.95
2022-08-30T02:26:27.241Z,9.02
2022-08-30T02:28:57.084Z,8.93
2022-08-30T02:31:26.629Z,7.80
2022-08-30T02:33:58.271Z,9.10
2022-08-30T02:36:29.687Z,8.88
2022-08-30T02:38:57.066Z,8.10
2022-08-30T02:41:24.655Z,8.60
2022-08-30T02:43:52.772Z,8.07
2022-08-30T02:46:20.083Z,8.55
2022-08-30T02:48:47.290Z,8.13
2022-08-30T02:51:15.138Z,8.90
2022-08-30T02:53:44.019Z,7.82
2022-08-30T02:56:13.606Z,9.10
2022-08-30T02:58:45.145Z,8.07
2022-08-30T03:01:21.251Z,9.55
2022-08-30T03:03:51.605Z,8.43
2022-08-30T03:06:18.929Z,8.23
2022-08-30T03:08:46.029Z,8.82
2022-08-30T03:11:18.581Z,9.02
2022-08-30T03:13:46.189Z,8.40
2022-08-30T03:16:16.518Z,9.07
2022-08-30T03:18:57.086Z,10.07
2022-08-30T03:21:28.558Z,9.93
2022-08-30T03:23:57.056Z,8.57
2022-08-30T03:26:24.836Z,8.65
2022-08-30T03:28:54.047Z,8.88
2022-08-30T03:31:29.652Z,8.75
2022-08-30T03:34:02.949Z,9.07
2022-08-30T03:36:30.560Z,9.85
2022-08-30T03:38:58.539Z,11.60
2022-08-30T03:41:26.088Z,8.82
2022-08-30T03:43:59.880Z,11.60
2022-08-30T03:46:28.790Z,12.20
2022-08-30T03:48:57.326Z,9.18
2022-08-30T03:51:25.835Z,11.13
2022-08-30T03:53:54.797Z,8.98
2022-08-30T03:56:22.274Z,9.38
2022-08-30T03:58:49.605Z,11.95
2022-08-30T04:01:19.140Z,8.85
2022-08-30T04:03:47.483Z,9.30
2022-08-30T04:06:20.136Z,10.50
2022-08-30T04:09:03.960Z,9.15
2022-08-30T04:11:32.360Z,9.10
2022-08-30T04:14:02.803Z,8.43
2022-08-30T04:16:29.948Z,7.70
2022-08-30T04:22:15.420Z,8.07
2022-08-30T04:25:15.887Z,7.60
2022-08-30T04:30:46.581Z,8.13
2022-08-30T04:33:45.618Z,8.48
2022-08-30T04:36:14.020Z,8.13
2022-08-30T04:38:50.644Z,8.45
2022-08-30T04:41:24.076Z,9.55
2022-08-30T04:43:51.549Z,8.70
2022-08-30T04:46:19.432Z,7.53
2022-08-30T04:54:40.874Z,6.05
2022-08-30T04:57:09.375Z,6.90
2022-08-30T05:02:13.216Z,8.60
2022-08-30T05:05:06.202Z,8.40
2022-08-30T05:07:34.546Z,8.57
2022-08-30T05:10:01.672Z,8.68
2022-08-30T05:12:28.756Z,9.43
2022-08-30T05:14:58.508Z,7.90
2022-08-30T05:17:25.667Z,9.15
2022-08-30T05:19:52.791Z,8.35
2022-08-30T05:22:20.423Z,9.18
2022-08-30T05:24:47.510Z,9.38
2022-08-30T05:27:14.681Z,8.20
2022-08-30T05:29:42.011Z,9.82
2022-08-30T05:32:11.045Z,9.60
2022-08-30T05:34:38.534Z,11.32
2022-08-30T05:37:05.865Z,9.50
2022-08-30T05:39:50.859Z,9.55
2022-08-30T05:42:19.918Z,8.07
2022-08-30T05:44:52.195Z,8.73
2022-08-30T05:47:20.355Z,8.50
2022-08-30T05:49:48.923Z,10.65
2022-08-30T05:54:46.663Z,10.40
2022-08-30T05:57:14.546Z,9.95
2022-08-30T05:59:41.687Z,8.85
2022-08-30T06:02:10.418Z,10.27
2022-08-30T06:04:54.413Z,9.38
2022-08-30T06:07:37.274Z,10.48
2022-08-30T06:10:07.035Z,11.07
2022-08-30T06:15:20.299Z,7.93
2022-08-30T06:17:48.507Z,6.05
2022-08-30T06:20:22.667Z,8.40
2022-08-30T06:22:59.109Z,10.65
2022-08-30T06:25:27.695Z,8.88
2022-08-30T06:28:09.792Z,11.55
2022-08-30T06:30:37.370Z,12.75
2022-08-30T06:33:05.760Z,12.07
2022-08-30T06:35:38.242Z,9.13
2022-08-30T06:38:14.312Z,12.48
2022-08-30T06:40:41.852Z,13.02
2022-08-30T06:43:12.110Z,11.82
2022-08-30T06:45:39.397Z,10.93
2022-08-30T06:48:08.982Z,9.52
2022-08-30T06:50:39.622Z,11.23
2022-08-30T06:56:22.240Z,9.55
2022-08-30T06:58:50.240Z,13.20
2022-08-30T07:04:05.189Z,13.27
2022-08-30T07:06:33.267Z,12.27
2022-08-30T07:09:00.464Z,13.15
2022-08-30T07:11:40.546Z,11.63
2022-08-30T07:14:09.110Z,11.32
2022-08-30T07:16:36.596Z,13.18
2022-08-30T07:19:05.407Z,11.52
2022-08-30T07:21:42.650Z,12.10
2022-08-30T07:24:11.626Z,11.40
2022-08-30T07:26:47.449Z,12.23
2022-08-30T07:29:16.030Z,11.90
2022-08-30T07:34:27.513Z,10.75
2022-08-30T07:36:58.256Z,12.30
2022-08-30T07:39:25.523Z,11.20
2022-08-30T07:41:52.557Z,12.35
2022-08-30T07:44:22.827Z,11.70
2022-08-30T07:47:00.122Z,12.70
2022-08-30T07:49:39.832Z,13.70
2022-08-30T07:52:08.044Z,12.52
2022-08-30T07:54:41.246Z,12.30
2022-08-30T07:59:51.671Z,12.45
2022-08-30T08:02:20.867Z,13.82
2022-08-30T08:04:58.072Z,11.13
2022-08-30T08:07:50.830Z,10.93
2022-08-30T08:11:16.235Z,10.95
2022-08-30T08:14:04.349Z,11.52
2022-08-30T08:26:36.200Z,10.52
2022-08-30T08:29:12.123Z,8.50
2022-08-30T08:31:47.062Z,8.68
2022-08-30T08:34:14.667Z,9.70
2022-08-30T08:36:41.786Z,8.77
2022-08-30T08:39:09.892Z,9.32
2022-08-30T08:41:45.686Z,8.77
2022-08-30T08:44:32.462Z,9.52
2022-08-30T08:47:20.263Z,8.70
2022-08-30T08:49:52.040Z,9.20
2022-08-30T08:52:55.907Z,10.52
2022-08-30T08:55:24.810Z,10.70
2022-08-30T08:57:52.854Z,10.80
2022-08-30T09:00:20.187Z,7.75
2022-08-30T09:03:00.144Z,7.90
2022-08-30T09:05:35.526Z,8.88
2022-08-30T09:08:11.521Z,8.18
2022-08-30T09:13:22.804Z,8.40
2022-08-30T09:15:54.861Z,7.45
2022-08-30T09:18:47.463Z,9.13
2022-08-30T09:21:24.882Z,8.65
2022-08-30T09:23:59.311Z,8.77
2022-08-30T09:26:33.226Z,9.02
2022-08-30T09:29:01.223Z,7.15
2022-08-30T09:31:33.748Z,7.88
2022-08-30T09:34:07.464Z,7.68
2022-08-30T09:36:45.703Z,7.43
2022-08-30T09:39:18.793Z,4.65
2022-08-30T09:41:50.533Z,7.45
2022-08-30T09:44:31.673Z,9.05
2022-08-30T09:47:01.568Z,8.50
2022-08-30T09:49:30.825Z,8.43
2022-08-30T09:52:25.903Z,9.35
2022-08-30T09:55:09.818Z,8.88
2022-08-30T09:57:43.803Z,9.07
2022-08-30T10:00:22.073Z,9.30
2022-08-30T10:03:35.225Z,8.25
2022-08-30T10:09:23.270Z,8.25
2022-08-30T10:14:40.387Z,8.40
2022-08-30T10:17:51.675Z,8.60
2022-08-30T10:20:32.585Z,8.55
2022-08-30T10:23:16.122Z,7.72
2022-08-30T10:25:52.547Z,7.90
2022-08-30T10:28:52.467Z,6.90
2022-08-30T10:31:42.226Z,8.25
2022-08-30T10:34:24.679Z,7.38
2022-08-30T10:37:02.154Z,6.50
2022-08-30T10:39:39.414Z,8.95
2022-08-30T10:42:18.721Z,9.00
2022-08-30T10:44:52.673Z,8.10
2022-08-30T10:47:54.428Z,8.05
2022-08-30T10:51:07.078Z,7.80
2022-08-30T10:53:45.005Z,7.82
2022-08-30T10:56:32.667Z,7.03
2022-08-30T10:59:00.665Z,6.72
2022-08-30T11:01:46.448Z,7.72
2022-08-30T11:04:47.954Z,8.18
2022-08-30T11:07:40.509Z,7.10
2022-08-30T11:11:03.617Z,7.72
2022-08-30T11:17:01.208Z,7.25
2022-08-30T11:19:39.234Z,5.40
2022-08-30T11:22:16.009Z,6.65
2022-08-30T11:25:10.149Z,6.60
2022-08-30T11:27:59.069Z,6.03
2022-08-30T11:30:27.090Z,6.07
2022-08-30T11:33:37.839Z,5.70
2022-08-30T11:36:38.193Z,5.43
2022-08-30T11:39:51.570Z,6.82
2022-08-30T11:42:33.352Z,5.13
2022-08-30T11:45:25.181Z,6.75
2022-08-30T11:48:09.589Z,5.55
2022-08-30T11:50:59.606Z,5.35
2022-08-30T11:53:58.597Z,5.18
2022-08-30T11:56:47.275Z,5.93
2022-08-30T11:59:26.091Z,5.00
2022-08-30T12:01:54.798Z,5.50
2022-08-30T12:04:28.697Z,5.00
2022-08-30T12:07:04.451Z,5.30
2022-08-30T12:09:34.670Z,5.18
2022-08-30T12:12:08.104Z,5.43
2022-08-30T12:14:54.913Z,6.07
2022-08-30T12:18:04.035Z,6.53
2022-08-30T12:20:42.862Z,5.70
2022-08-30T12:23:35.204Z,4.90
2022-08-30T12:26:11.252Z,6.32
2022-08-30T12:28:38.773Z,5.30
2022-08-30T12:31:21.000Z,5.60
2022-08-30T12:33:54.312Z,6.22
2022-08-30T12:36:35.832Z,5.53
2022-08-30T12:39:09.154Z,5.22
2022-08-30T12:41:36.936Z,5.15
2022-08-30T12:44:18.970Z,5.43
2022-08-30T12:46:58.852Z,6.03
2022-08-30T12:49:36.825Z,4.60
2022-08-30T12:52:24.505Z,5.53
2022-08-30T12:55:27.927Z,5.40
2022-08-30T12:58:09.741Z,5.55
2022-08-30T13:00:40.920Z,4.75
2022-08-30T13:03:30.294Z,4.13
2022-08-30T13:08:46.139Z,4.50
2022-08-30T13:11:29.679Z,4.78
2022-08-30T13:14:35.938Z,6.03
2022-08-30T13:17:21.602Z,5.30
2022-08-30T13:20:24.452Z,4.45
2022-08-30T13:23:09.591Z,5.13
2022-08-30T13:25:39.155Z,5.82
2022-08-30T13:28:09.213Z,5.00
2022-08-30T13:30:38.690Z,5.90
2022-08-30T13:33:05.935Z,6.18
2022-08-30T13:35:34.025Z,5.97
2022-08-30T13:38:04.185Z,6.35
2022-08-30T13:40:34.321Z,6.07
2022-08-30T13:43:07.006Z,6.13
2022-08-30T13:45:42.956Z,5.80
2022-08-30T13:48:13.632Z,6.68
2022-08-30T13:50:40.713Z,6.70
2022-08-30T13:53:09.820Z,6.60
2022-08-30T13:55:40.831Z,7.13
2022-08-30T13:58:08.538Z,6.80
2022-08-30T14:00:38.638Z,6.03
2022-08-30T14:03:06.375Z,5.57
2022-08-30T14:05:49.213Z,6.65
2022-08-30T14:08:48.778Z,6.50
2022-08-30T14:11:22.330Z,5.97
2022-08-30T14:16:44.534Z,6.35
2022-08-30T14:19:14.286Z,6.28
2022-08-30T14:21:50.925Z,5.95
2022-08-30T14:24:21.579Z,6.20
2022-08-30T14:26:53.810Z,6.05
2022-08-30T14:32:13.269Z,5.78
2022-08-30T14:34:45.551Z,6.00
2022-08-30T14:37:18.375Z,6.55
2022-08-30T14:39:48.004Z,6.88
2022-08-30T14:42:18.875Z,6.65
2022-08-30T14:44:56.143Z,6.22
2022-08-30T14:47:29.512Z,6.28
2022-08-30T14:50:00.823Z,6.03
2022-08-30T14:52:29.592Z,6.85
2022-08-30T14:55:08.557Z,6.60
2022-08-30T14:57:38.546Z,6.30
2022-08-30T15:00:09.817Z,6.13
2022-08-30T15:02:36.995Z,6.35
2022-08-30T15:05:08.373Z,7.03
2022-08-30T15:07:49.179Z,6.60
2022-08-30T15:10:20.819Z,5.88
2022-08-30T15:12:48.688Z,6.22
2022-08-30T15:15:54.776Z,5.70
2022-08-30T15:18:29.821Z,5.22
2022-08-30T15:20:57.027Z,6.45
2022-08-30T15:23:24.991Z,7.38
2022-08-30T15:25:52.915Z,6.75
2022-08-30T15:28:20.086Z,6.63
2022-08-30T15:30:59.015Z,6.60
2022-08-30T15:33:26.147Z,7.70
2022-08-30T15:35:59.084Z,6.55
2022-08-30T15:38:29.545Z,7.10
2022-08-30T15:41:05.766Z,7.35
2022-08-30T15:43:34.778Z,6.03
2022-08-30T15:46:15.409Z,6.55
2022-08-30T15:48:45.630Z,5.85
2022-08-30T15:51:20.262Z,7.82
2022-08-30T15:53:49.938Z,7.00
2022-08-30T15:56:20.304Z,8.13
2022-08-30T15:58:48.408Z,7.60
2022-08-30T16:01:16.671Z,8.00
2022-08-30T16:03:48.325Z,7.70
2022-08-30T16:06:19.484Z,9.85
2022-08-30T16:08:58.228Z,7.97
2022-08-30T16:11:28.247Z,10.15
2022-08-30T16:13:57.313Z,9.77
2022-08-30T16:16:25.174Z,8.13
2022-08-30T16:18:55.232Z,7.47
2022-08-30T16:21:26.559Z,7.88
2022-08-30T16:23:59.978Z,8.82
2022-08-30T16:26:30.874Z,8.15
2022-08-30T16:29:01.413Z,8.68
2022-08-30T16:31:30.639Z,7.85
2022-08-30T16:34:02.414Z,7.63
2022-08-30T16:36:33.176Z,8.50
2022-08-30T16:39:01.070Z,8.35
2022-08-30T16:41:28.663Z,6.65
2022-08-30T16:46:27.812Z,5.22
2022-08-30T16:48:58.251Z,4.72
2022-08-30T16:51:29.800Z,5.10
2022-08-30T16:56:50.854Z,5.53
2022-08-30T16:59:18.974Z,4.95
2022-08-30T17:01:49.546Z,5.88
2022-08-30T17:04:21.350Z,5.03
2022-08-30T17:06:51.512Z,5.47
2022-08-30T17:09:20.764Z,5.88
2022-08-30T17:11:49.657Z,5.47
2022-08-30T17:14:21.508Z,5.07
2022-08-30T17:16:50.940Z,5.47
2022-08-30T17:19:37.933Z,4.80
2022-08-30T17:22:10.120Z,5.15
2022-08-30T17:24:39.125Z,5.45
2022-08-30T17:29:35.939Z,6.93
2022-08-30T17:32:03.270Z,8.63
2022-08-30T17:34:31.822Z,8.48
2022-08-30T17:37:00.219Z,7.43
2022-08-30T17:39:29.070Z,6.53
2022-08-30T17:41:56.454Z,7.78
2022-08-30T17:44:29.673Z,8.38
2022-08-30T17:46:59.572Z,10.60
2022-08-30T17:49:28.226Z,9.73
2022-08-30T17:51:57.114Z,11.57
2022-08-30T17:54:26.717Z,13.50
2022-08-30T17:56:54.631Z,14.30
2022-08-30T17:59:24.887Z,13.43
2022-08-30T18:01:55.330Z,14.32
2022-08-30T18:04:24.928Z,11.75
2022-08-30T18:06:55.814Z,11.15
2022-08-30T18:09:24.069Z,12.68
2022-08-30T18:11:51.541Z,15.15
2022-08-30T18:14:18.933Z,12.77
2022-08-30T18:16:53.068Z,12.15
2022-08-30T18:19:28.850Z,14.27
2022-08-30T18:21:56.482Z,12.25
2022-08-30T18:24:27.564Z,15.23
2022-08-30T18:26:56.310Z,11.93
2022-08-30T18:29:30.395Z,11.93
2022-08-30T18:32:03.567Z,11.15
2022-08-30T18:34:31.658Z,9.18
2022-08-30T18:36:58.749Z,9.88
2022-08-30T18:39:26.371Z,9.73
2022-08-30T18:41:54.680Z,12.85
2022-08-30T18:44:28.699Z,13.75
2022-08-30T18:46:58.319Z,13.10
2022-08-30T18:49:32.391Z,11.25
2022-08-30T18:52:01.368Z,12.43
2022-08-30T18:54:30.034Z,13.68
2022-08-30T18:56:57.183Z,12.95
2022-08-30T18:59:35.283Z,11.25
2022-08-30T19:02:11.441Z,12.45
2022-08-30T19:04:46.197Z,8.65
2022-08-30T19:07:15.315Z,11.63
2022-08-30T19:09:47.261Z,9.60
2022-08-30T19:12:14.677Z,10.70
2022-08-30T19:14:44.430Z,9.20
2022-08-30T19:17:12.061Z,9.20
2022-08-30T19:19:45.172Z,10.52
2022-08-30T19:22:19.290Z,9.77
2022-08-30T19:24:48.046Z,10.00
2022-08-30T19:27:21.538Z,10.20
2022-08-30T19:30:21.677Z,9.50
2022-08-30T19:32:52.964Z,9.95
2022-08-30T19:35:20.637Z,9.43
2022-08-30T19:37:51.423Z,11.13
2022-08-30T19:40:20.810Z,11.60
2022-08-30T19:42:49.402Z,11.38
2022-08-30T19:47:48.698Z,11.02
2022-08-30T19:50:17.331Z,12.15
2022-08-30T19:55:28.474Z,10.85
2022-08-30T19:57:57.700Z,8.85
2022-08-30T20:00:27.084Z,9.77
2022-08-30T20:02:58.543Z,9.98
2022-08-30T20:05:26.877Z,10.90
2022-08-30T20:07:55.138Z,11.63
2022-08-30T20:10:26.154Z,12.18
2022-08-30T20:12:55.965Z,8.63
2022-08-30T20:15:23.248Z,9.25
2022-08-30T20:20:38.470Z,8.10
2022-08-30T20:23:06.038Z,8.77
2022-08-30T20:25:34.768Z,10.55
2022-08-30T20:28:03.910Z,12.43
2022-08-30T20:30:31.742Z,10.80
2022-08-30T20:33:02.601Z,10.75
2022-08-30T20:35:32.275Z,11.23
2022-08-30T20:38:06.420Z,11.63
2022-08-30T20:40:36.200Z,11.90
2022-08-30T20:43:03.683Z,11.93
2022-08-30T20:45:33.132Z,10.20
2022-08-30T20:48:06.125Z,10.68
2022-08-30T20:50:33.868Z,9.90
2022-08-30T20:53:01.215Z,11.30
2022-08-30T20:55:28.345Z,10.95
2022-08-30T20:57:55.381Z,10.45
2022-08-30T21:00:23.202Z,8.25
2022-08-30T21:02:50.564Z,7.82
2022-08-30T21:05:18.024Z,6.68
2022-08-30T21:07:46.382Z,7.20
2022-08-30T21:10:22.608Z,8.18
2022-08-30T21:12:53.362Z,6.35
2022-08-30T21:15:36.851Z,8.32
2022-08-30T21:18:06.045Z,10.57
2022-08-30T21:20:33.208Z,9.30
2022-08-30T21:23:00.381Z,12.13
2022-08-30T21:25:27.616Z,8.55
2022-08-30T21:27:55.009Z,10.93
2022-08-30T21:30:22.271Z,8.98
2022-08-30T21:32:50.216Z,8.65
2022-08-30T21:35:38.090Z,6.88
2022-08-30T21:38:08.993Z,5.15
2022-08-30T21:40:36.946Z,6.40
2022-08-30T21:43:06.003Z,6.65
2022-08-30T21:45:45.207Z,6.13
2022-08-30T21:48:13.777Z,6.38
2022-08-30T21:50:43.229Z,6.15
2022-08-30T21:53:10.674Z,6.25
2022-08-30T21:55:37.966Z,6.97
2022-08-30T21:58:05.992Z,8.15
2022-08-30T22:00:35.241Z,7.10
2022-08-30T22:03:02.372Z,7.25
2022-08-30T22:05:29.995Z,6.93
2022-08-30T22:07:57.117Z,6.47
2022-08-30T22:10:24.227Z,7.10
2022-08-30T22:12:51.521Z,7.65
2022-08-30T22:15:18.585Z,6.22
2022-08-30T22:17:45.827Z,6.05
2022-08-30T22:20:16.199Z,6.50
2022-08-30T22:22:46.029Z,5.95
2022-08-30T22:25:13.790Z,7.32
2022-08-30T22:27:40.865Z,6.90
2022-08-30T22:30:08.300Z,6.78
2022-08-30T22:32:38.300Z,6.05
2022-08-30T22:35:06.051Z,6.53
2022-08-30T22:37:34.228Z,5.93
2022-08-30T22:40:01.744Z,6.20
2022-08-30T22:42:29.146Z,7.07
2022-08-30T22:44:56.186Z,7.60
2022-08-30T22:47:23.563Z,7.75
2022-08-30T22:49:50.525Z,7.88
2022-08-30T22:52:17.728Z,8.20
2022-08-30T22:54:52.144Z,7.40
2022-08-30T22:57:19.978Z,7.55
2022-08-30T22:59:46.962Z,7.30
2022-08-30T23:02:14.483Z,8.38
2022-08-30T23:04:41.579Z,8.77
2022-08-30T23:07:08.595Z,8.45
2022-08-30T23:09:36.257Z,8.25
2022-08-30T23:12:03.687Z,8.52
2022-08-30T23:14:30.841Z,8.75
2022-08-30T23:16:58.209Z,7.78
2022-08-30T23:19:26.807Z,9.18
2022-08-30T23:24:40.000Z,8.63
2022-08-30T23:27:26.088Z,8.40
2022-08-30T23:30:11.772Z,7.18
2022-08-30T23:32:57.455Z,8.40
2022-08-30T23:35:43.242Z,10.18
2022-08-30T23:38:28.758Z,9.88
2022-08-30T23:41:15.142Z,9.95
2022-08-30T23:44:00.713Z,9.18
2022-08-30T23:46:46.743Z,9.43
2022-08-30T23:49:32.291Z,8.73
2022-08-30T23:52:18.247Z,8.23
2022-08-30T23:55:12.482Z,9.00
2022-08-30T23:58:03.764Z,8.70
